createdAt,value
2018-07-25T00:00:11.671Z,1010.71
2018-07-25T00:01:11.662Z,1010.77
2018-07-25T00:02:11.647Z,1010.73
2018-07-25T00:03:11.639Z,1010.75
2018-07-25T00:04:11.628Z,1010.74
2018-07-25T00:05:11.616Z,1010.77
2018-07-25T00:06:11.605Z,1010.69
2018-07-25T00:07:11.595Z,1010.67
2018-07-25T00:08:11.585Z,1010.67
2018-07-25T00:09:11.573Z,1010.70
2018-07-25T00:10:11.562Z,1010.67
2018-07-25T00:11:11.552Z,1010.69
2018-07-25T00:12:11.541Z,1010.69
2018-07-25T00:13:11.530Z,1010.69
2018-07-25T00:14:11.519Z,1010.70
2018-07-25T00:15:11.507Z,1010.67
2018-07-25T00:16:11.500Z,1010.65
2018-07-25T00:17:11.487Z,1010.67
2018-07-25T00:18:11.475Z,1010.66
2018-07-25T00:19:11.466Z,1010.66
2018-07-25T00:20:11.458Z,1010.59
2018-07-25T00:21:11.442Z,1010.62
2018-07-25T00:22:11.431Z,1010.63
2018-07-25T00:23:11.422Z,1010.60
2018-07-25T00:24:11.414Z,1010.60
2018-07-25T00:25:11.402Z,1010.62
2018-07-25T00:26:11.392Z,1010.62
2018-07-25T00:27:11.378Z,1010.58
2018-07-25T00:28:11.366Z,1010.57
2018-07-25T00:29:11.395Z,1010.54
2018-07-25T00:30:11.352Z,1010.55
2018-07-25T00:31:11.333Z,1010.56
2018-07-25T00:32:11.322Z,1010.53
2018-07-25T00:33:11.315Z,1010.54
2018-07-25T00:34:11.300Z,1010.58
2018-07-25T00:35:11.292Z,1010.57
2018-07-25T00:36:11.319Z,1010.56
2018-07-25T00:37:11.267Z,1010.57
2018-07-25T00:38:11.261Z,1010.53
2018-07-25T00:39:11.245Z,1010.56
2018-07-25T00:40:11.236Z,1010.55
2018-07-25T00:41:11.223Z,1010.57
2018-07-25T00:42:11.211Z,1010.54
2018-07-25T00:43:11.930Z,1010.54
2018-07-25T00:44:11.513Z,1010.51
2018-07-25T00:45:13.322Z,1010.53
2018-07-25T00:47:12.491Z,1010.52
2018-07-25T00:49:13.382Z,1010.46
2018-07-25T00:50:11.122Z,1010.47
2018-07-25T00:51:11.112Z,1010.50
2018-07-25T00:52:11.105Z,1010.47
2018-07-25T00:53:11.087Z,1010.48
2018-07-25T00:54:11.078Z,1010.47
2018-07-25T00:55:11.069Z,1010.50
2018-07-25T00:56:11.057Z,1010.48
2018-07-25T00:57:11.045Z,1010.48
2018-07-25T00:58:11.033Z,1010.51
2018-07-25T00:59:11.022Z,1010.49
2018-07-25T01:00:11.049Z,1010.52
2018-07-25T01:01:11.005Z,1010.47
2018-07-25T01:02:10.990Z,1010.51
2018-07-25T01:03:10.979Z,1010.52
2018-07-25T01:04:10.968Z,1010.49
2018-07-25T01:05:10.955Z,1010.46
2018-07-25T01:06:10.942Z,1010.49
2018-07-25T01:07:10.932Z,1010.47
2018-07-25T01:08:10.931Z,1010.44
2018-07-25T01:09:10.908Z,1010.46
2018-07-25T01:10:10.899Z,1010.44
2018-07-25T01:11:10.886Z,1010.43
2018-07-25T01:12:10.875Z,1010.47
2018-07-25T01:13:10.864Z,1010.40
2018-07-25T01:14:10.851Z,1010.43
2018-07-25T01:15:10.840Z,1010.42
2018-07-25T01:16:10.831Z,1010.40
2018-07-25T01:17:10.817Z,1010.38
2018-07-25T01:18:10.807Z,1010.42
2018-07-25T01:19:10.796Z,1010.42
2018-07-25T01:20:10.785Z,1010.48
2018-07-25T01:21:10.774Z,1010.45
2018-07-25T01:22:10.760Z,1010.44
2018-07-25T01:23:10.750Z,1010.46
2018-07-25T01:24:10.738Z,1010.48
2018-07-25T01:25:10.725Z,1010.45
2018-07-25T01:26:10.716Z,1010.47
2018-07-25T01:27:10.703Z,1010.44
2018-07-25T01:28:10.691Z,1010.50
2018-07-25T01:29:10.681Z,1010.45
2018-07-25T01:30:10.669Z,1010.47
2018-07-25T01:31:10.658Z,1010.49
2018-07-25T01:32:10.653Z,1010.48
2018-07-25T01:33:10.638Z,1010.48
2018-07-25T01:34:10.622Z,1010.45
2018-07-25T01:35:10.612Z,1010.45
2018-07-25T01:36:10.601Z,1010.49
2018-07-25T01:37:10.587Z,1010.51
2018-07-25T01:38:10.576Z,1010.50
2018-07-25T01:39:10.567Z,1010.51
2018-07-25T01:40:10.554Z,1010.51
2018-07-25T01:41:10.542Z,1010.47
2018-07-25T01:42:10.530Z,1010.54
2018-07-25T01:43:10.518Z,1010.53
2018-07-25T01:44:10.507Z,1010.52
2018-07-25T01:45:10.494Z,1010.52
2018-07-25T01:46:10.484Z,1010.58
2018-07-25T01:47:10.475Z,1010.59
2018-07-25T01:48:10.461Z,1010.57
2018-07-25T01:49:10.448Z,1010.61
2018-07-25T01:50:10.437Z,1010.62
2018-07-25T01:51:10.431Z,1010.66
2018-07-25T01:52:10.415Z,1010.63
2018-07-25T01:53:10.406Z,1010.63
2018-07-25T01:54:10.392Z,1010.60
2018-07-25T01:55:10.380Z,1010.66
2018-07-25T01:56:10.367Z,1010.66
2018-07-25T01:57:10.356Z,1010.67
2018-07-25T01:58:10.349Z,1010.64
2018-07-25T01:59:10.333Z,1010.66
2018-07-25T02:00:10.328Z,1010.68
2018-07-25T02:01:10.310Z,1010.68
2018-07-25T02:02:10.297Z,1010.68
2018-07-25T02:03:10.290Z,1010.70
2018-07-25T02:04:10.277Z,1010.71
2018-07-25T02:05:10.264Z,1010.69
2018-07-25T02:06:10.254Z,1010.69
2018-07-25T02:07:10.241Z,1010.69
2018-07-25T02:08:10.257Z,1010.67
2018-07-25T02:09:10.216Z,1010.70
2018-07-25T02:10:10.209Z,1010.68
2018-07-25T02:11:10.194Z,1010.70
2018-07-25T02:12:10.183Z,1010.71
2018-07-25T02:13:10.170Z,1010.70
2018-07-25T02:14:10.159Z,1010.71
2018-07-25T02:15:10.148Z,1010.71
2018-07-25T02:16:10.135Z,1010.70
2018-07-25T02:17:10.124Z,1010.69
2018-07-25T02:18:10.114Z,1010.72
2018-07-25T02:19:10.100Z,1010.69
2018-07-25T02:20:10.090Z,1010.69
2018-07-25T02:21:10.078Z,1010.68
2018-07-25T02:22:10.065Z,1010.66
2018-07-25T02:23:10.053Z,1010.71
2018-07-25T02:24:10.043Z,1010.73
2018-07-25T02:25:10.030Z,1010.69
2018-07-25T02:26:10.018Z,1010.73
2018-07-25T02:27:10.007Z,1010.74
2018-07-25T02:28:09.996Z,1010.74
2018-07-25T02:29:09.986Z,1010.76
2018-07-25T02:30:09.977Z,1010.74
2018-07-25T02:31:09.966Z,1010.78
2018-07-25T02:32:09.949Z,1010.74
2018-07-25T02:33:09.936Z,1010.74
2018-07-25T02:34:09.924Z,1010.76
2018-07-25T02:35:09.913Z,1010.77
2018-07-25T02:36:09.908Z,1010.72
2018-07-25T02:37:09.890Z,1010.75
2018-07-25T02:38:09.879Z,1010.77
2018-07-25T02:39:09.866Z,1010.76
2018-07-25T02:40:09.855Z,1010.79
2018-07-25T02:41:09.843Z,1010.76
2018-07-25T02:42:09.836Z,1010.77
2018-07-25T02:43:09.819Z,1010.82
2018-07-25T02:44:09.810Z,1010.74
2018-07-25T02:45:09.800Z,1010.76
2018-07-25T02:46:09.789Z,1010.75
2018-07-25T02:47:09.775Z,1010.75
2018-07-25T02:48:09.767Z,1010.76
2018-07-25T02:49:09.768Z,1010.77
2018-07-25T02:50:09.741Z,1010.76
2018-07-25T02:51:09.727Z,1010.77
2018-07-25T02:52:09.718Z,1010.78
2018-07-25T02:53:09.703Z,1010.84
2018-07-25T02:54:09.693Z,1010.85
2018-07-25T02:55:09.680Z,1010.82
2018-07-25T02:56:09.669Z,1010.86
2018-07-25T02:57:09.658Z,1010.83
2018-07-25T02:58:09.649Z,1010.81
2018-07-25T02:59:09.635Z,1010.83
2018-07-25T03:00:09.623Z,1010.84
2018-07-25T03:01:09.613Z,1010.82
2018-07-25T03:02:09.598Z,1010.85
2018-07-25T03:03:09.588Z,1010.86
2018-07-25T03:04:09.576Z,1010.86
2018-07-25T03:05:09.563Z,1010.87
2018-07-25T03:06:09.555Z,1010.89
2018-07-25T03:07:09.540Z,1010.87
2018-07-25T03:08:09.527Z,1010.88
2018-07-25T03:09:09.600Z,1010.89
2018-07-25T03:10:09.502Z,1010.91
2018-07-25T03:11:09.492Z,1010.92
2018-07-25T03:12:09.482Z,1010.94
2018-07-25T03:13:09.468Z,1010.97
2018-07-25T03:14:09.456Z,1010.97
2018-07-25T03:16:09.431Z,1010.97
2018-07-25T03:17:09.627Z,1010.97
2018-07-25T03:18:09.408Z,1010.99
2018-07-25T03:19:09.396Z,1010.99
2018-07-25T03:20:09.395Z,1011.03
2018-07-25T03:21:09.377Z,1011.03
2018-07-25T03:22:09.364Z,1011.06
2018-07-25T03:23:09.350Z,1011.08
2018-07-25T03:24:09.338Z,1011.10
2018-07-25T03:25:09.325Z,1011.09
2018-07-25T03:26:09.315Z,1011.08
2018-07-25T03:27:09.305Z,1011.10
2018-07-25T03:28:09.293Z,1011.09
2018-07-25T03:29:09.286Z,1011.08
2018-07-25T03:30:09.287Z,1011.09
2018-07-25T03:31:09.260Z,1011.12
2018-07-25T03:32:09.245Z,1011.12
2018-07-25T03:33:09.233Z,1011.12
2018-07-25T03:34:09.219Z,1011.11
2018-07-25T03:35:09.206Z,1011.12
2018-07-25T03:36:09.197Z,1011.12
2018-07-25T03:37:09.184Z,1011.13
2018-07-25T03:38:09.172Z,1011.13
2018-07-25T03:39:09.159Z,1011.12
2018-07-25T03:40:09.148Z,1011.14
2018-07-25T03:41:09.142Z,1011.15
2018-07-25T03:42:09.125Z,1011.16
2018-07-25T03:43:09.114Z,1011.20
2018-07-25T03:44:09.102Z,1011.16
2018-07-25T03:45:09.091Z,1011.23
2018-07-25T03:46:09.078Z,1011.24
2018-07-25T03:47:09.065Z,1011.27
2018-07-25T03:48:09.055Z,1011.29
2018-07-25T03:49:09.042Z,1011.30
2018-07-25T03:50:09.035Z,1011.34
2018-07-25T03:51:09.019Z,1011.30
2018-07-25T03:52:09.009Z,1011.30
2018-07-25T03:53:08.999Z,1011.31
2018-07-25T03:54:08.981Z,1011.27
2018-07-25T03:55:08.978Z,1011.34
2018-07-25T03:56:08.963Z,1011.35
2018-07-25T03:57:08.948Z,1011.30
2018-07-25T03:58:08.935Z,1011.31
2018-07-25T03:59:08.925Z,1011.31
2018-07-25T04:00:08.912Z,1011.27
2018-07-25T04:01:08.904Z,1011.28
2018-07-25T04:02:08.895Z,1011.33
2018-07-25T04:03:08.883Z,1011.32
2018-07-25T04:04:08.866Z,1011.35
2018-07-25T04:05:08.853Z,1011.36
2018-07-25T04:06:08.847Z,1011.35
2018-07-25T04:07:08.830Z,1011.33
2018-07-25T04:08:08.843Z,1011.35
2018-07-25T04:09:08.809Z,1011.37
2018-07-25T04:10:08.796Z,1011.37
2018-07-25T04:11:08.790Z,1011.35
2018-07-25T04:12:08.774Z,1011.35
2018-07-25T04:13:08.766Z,1011.34
2018-07-25T04:14:08.749Z,1011.34
2018-07-25T04:15:08.738Z,1011.33
2018-07-25T04:16:08.734Z,1011.35
2018-07-25T04:17:08.719Z,1011.31
2018-07-25T04:18:08.706Z,1011.33
2018-07-25T04:19:08.692Z,1011.36
2018-07-25T04:20:08.682Z,1011.36
2018-07-25T04:21:08.671Z,1011.36
2018-07-25T04:22:08.657Z,1011.38
2018-07-25T04:23:08.646Z,1011.39
2018-07-25T04:24:08.637Z,1011.40
2018-07-25T04:25:08.625Z,1011.39
2018-07-25T04:26:08.612Z,1011.40
2018-07-25T04:27:08.601Z,1011.39
2018-07-25T04:28:08.592Z,1011.38
2018-07-25T04:29:08.579Z,1011.44
2018-07-25T04:30:08.571Z,1011.40
2018-07-25T04:31:08.559Z,1011.48
2018-07-25T04:32:08.546Z,1011.48
2018-07-25T04:33:08.532Z,1011.47
2018-07-25T04:34:08.523Z,1011.48
2018-07-25T04:35:08.511Z,1011.46
2018-07-25T04:36:08.502Z,1011.49
2018-07-25T04:37:08.488Z,1011.52
2018-07-25T04:38:08.479Z,1011.47
2018-07-25T04:39:08.466Z,1011.47
2018-07-25T04:40:08.454Z,1011.50
2018-07-25T04:41:08.441Z,1011.48
2018-07-25T04:42:08.432Z,1011.49
2018-07-25T04:43:08.422Z,1011.48
2018-07-25T04:44:08.409Z,1011.49
2018-07-25T04:45:08.397Z,1011.51
2018-07-25T04:46:08.427Z,1011.50
2018-07-25T04:47:08.376Z,1011.55
2018-07-25T04:48:08.365Z,1011.53
2018-07-25T04:49:08.352Z,1011.56
2018-07-25T04:50:08.341Z,1011.55
2018-07-25T04:51:08.331Z,1011.56
2018-07-25T04:52:08.321Z,1011.56
2018-07-25T04:53:08.309Z,1011.54
2018-07-25T04:54:08.298Z,1011.56
2018-07-25T04:55:08.287Z,1011.58
2018-07-25T04:56:08.289Z,1011.59
2018-07-25T04:57:08.265Z,1011.61
2018-07-25T04:58:08.252Z,1011.60
2018-07-25T04:59:08.249Z,1011.63
2018-07-25T05:00:08.232Z,1011.68
2018-07-25T05:01:08.222Z,1011.66
2018-07-25T05:02:08.209Z,1011.64
2018-07-25T05:03:08.195Z,1011.62
2018-07-25T05:04:08.190Z,1011.62
2018-07-25T05:05:08.180Z,1011.61
2018-07-25T05:06:08.168Z,1011.61
2018-07-25T05:07:08.168Z,1011.61
2018-07-25T05:08:08.142Z,1011.62
2018-07-25T05:09:08.142Z,1011.61
2018-07-25T05:10:08.120Z,1011.60
2018-07-25T05:11:08.108Z,1011.60
2018-07-25T05:12:08.098Z,1011.63
2018-07-25T05:13:08.091Z,1011.63
2018-07-25T05:14:08.081Z,1011.63
2018-07-25T05:15:08.066Z,1011.60
2018-07-25T05:16:08.055Z,1011.64
2018-07-25T05:17:08.041Z,1011.66
2018-07-25T05:18:08.031Z,1011.61
2018-07-25T05:19:08.021Z,1011.63
2018-07-25T05:20:08.014Z,1011.60
2018-07-25T05:21:07.998Z,1011.62
2018-07-25T05:22:07.989Z,1011.61
2018-07-25T05:23:08.004Z,1011.62
2018-07-25T05:24:07.965Z,1011.64
2018-07-25T05:25:07.952Z,1011.64
2018-07-25T05:26:07.942Z,1011.67
2018-07-25T05:27:07.931Z,1011.64
2018-07-25T05:28:07.924Z,1011.66
2018-07-25T05:29:07.910Z,1011.64
2018-07-25T05:30:07.963Z,1011.63
2018-07-25T05:31:07.892Z,1011.67
2018-07-25T05:32:07.896Z,1011.61
2018-07-25T05:33:07.864Z,1011.65
2018-07-25T05:34:07.853Z,1011.63
2018-07-25T05:35:07.846Z,1011.60
2018-07-25T05:36:07.837Z,1011.67
2018-07-25T05:37:07.820Z,1011.60
2018-07-25T05:38:07.861Z,1011.59
2018-07-25T05:39:07.803Z,1011.64
2018-07-25T05:40:07.790Z,1011.63
2018-07-25T05:41:07.777Z,1011.63
2018-07-25T05:42:07.768Z,1011.70
2018-07-25T05:43:07.757Z,1011.68
2018-07-25T05:44:07.749Z,1011.72
2018-07-25T05:45:07.735Z,1011.73
2018-07-25T05:46:07.733Z,1011.72
2018-07-25T05:47:07.714Z,1011.68
2018-07-25T05:48:07.706Z,1011.76
2018-07-25T05:49:07.691Z,1011.76
2018-07-25T05:50:07.680Z,1011.77
2018-07-25T05:51:07.670Z,1011.76
2018-07-25T05:52:07.658Z,1011.76
2018-07-25T05:53:07.648Z,1011.76
2018-07-25T05:54:07.637Z,1011.79
2018-07-25T05:55:07.630Z,1011.81
2018-07-25T05:56:07.617Z,1011.79
2018-07-25T05:57:07.605Z,1011.80
2018-07-25T05:58:07.593Z,1011.77
2018-07-25T05:59:07.583Z,1011.81
2018-07-25T06:00:07.572Z,1011.82
2018-07-25T06:01:07.560Z,1011.84
2018-07-25T06:02:07.555Z,1011.88
2018-07-25T06:03:07.566Z,1011.84
2018-07-25T06:04:07.530Z,1011.84
2018-07-25T06:05:07.527Z,1011.84
2018-07-25T06:06:07.635Z,1011.88
2018-07-25T06:07:07.501Z,1011.84
2018-07-25T06:08:07.488Z,1011.84
2018-07-25T06:09:07.476Z,1011.87
2018-07-25T06:10:07.466Z,1011.87
2018-07-25T06:11:07.459Z,1011.90
2018-07-25T06:12:07.452Z,1011.93
2018-07-25T06:13:07.460Z,1011.92
2018-07-25T06:14:07.451Z,1011.94
2018-07-25T06:15:07.414Z,1011.92
2018-07-25T06:16:07.402Z,1011.98
2018-07-25T06:17:07.393Z,1011.97
2018-07-25T06:18:07.377Z,1011.98
2018-07-25T06:19:07.370Z,1012.03
2018-07-25T06:20:07.363Z,1012.00
2018-07-25T06:21:07.351Z,1012.01
2018-07-25T06:22:07.343Z,1012.06
2018-07-25T06:23:07.327Z,1012.03
2018-07-25T06:24:07.319Z,1012.07
2018-07-25T06:25:07.305Z,1012.05
2018-07-25T06:26:07.297Z,1012.07
2018-07-25T06:27:07.283Z,1012.07
2018-07-25T06:28:07.274Z,1012.07
2018-07-25T06:29:07.273Z,1012.08
2018-07-25T06:30:07.255Z,1012.08
2018-07-25T06:31:07.245Z,1012.11
2018-07-25T06:32:07.232Z,1012.11
2018-07-25T06:33:07.224Z,1012.09
2018-07-25T06:34:07.211Z,1012.08
2018-07-25T06:35:07.201Z,1012.09
2018-07-25T06:36:07.194Z,1012.12
2018-07-25T06:37:07.182Z,1012.10
2018-07-25T06:38:07.169Z,1012.06
2018-07-25T06:39:07.159Z,1012.11
2018-07-25T06:40:07.149Z,1012.10
2018-07-25T06:41:07.140Z,1012.11
2018-07-25T06:42:07.129Z,1012.11
2018-07-25T06:43:07.123Z,1012.11
2018-07-25T06:44:07.117Z,1012.13
2018-07-25T06:45:07.096Z,1012.15
2018-07-25T06:46:07.089Z,1012.15
2018-07-25T06:47:07.079Z,1012.13
2018-07-25T06:48:07.075Z,1012.14
2018-07-25T06:49:07.063Z,1012.16
2018-07-25T06:50:07.046Z,1012.11
2018-07-25T06:51:07.035Z,1012.15
2018-07-25T06:52:07.039Z,1012.16
2018-07-25T06:53:07.017Z,1012.19
2018-07-25T06:54:07.006Z,1012.13
2018-07-25T06:55:06.994Z,1012.15
2018-07-25T06:56:06.985Z,1012.14
2018-07-25T06:57:06.974Z,1012.13
2018-07-25T06:58:06.968Z,1012.12
2018-07-25T06:59:06.956Z,1012.16
2018-07-25T07:00:06.947Z,1012.17
2018-07-25T07:01:06.940Z,1012.19
2018-07-25T07:02:06.931Z,1012.19
2018-07-25T07:03:06.921Z,1012.18
2018-07-25T07:04:06.911Z,1012.20
2018-07-25T07:05:06.896Z,1012.17
2018-07-25T07:06:06.886Z,1012.19
2018-07-25T07:07:06.877Z,1012.20
2018-07-25T07:08:06.873Z,1012.19
2018-07-25T07:09:06.859Z,1012.17
2018-07-25T07:10:06.849Z,1012.20
2018-07-25T07:11:06.840Z,1012.25
2018-07-25T07:12:06.888Z,1012.22
2018-07-25T07:13:06.821Z,1012.23
2018-07-25T07:14:06.813Z,1012.28
2018-07-25T07:15:06.802Z,1012.29
2018-07-25T07:16:06.792Z,1012.26
2018-07-25T07:17:06.780Z,1012.30
2018-07-25T07:18:06.776Z,1012.32
2018-07-25T07:19:06.763Z,1012.36
2018-07-25T07:20:06.755Z,1012.34
2018-07-25T07:21:06.744Z,1012.34
2018-07-25T07:22:06.735Z,1012.33
2018-07-25T07:23:06.728Z,1012.34
2018-07-25T07:24:06.781Z,1012.30
2018-07-25T07:25:06.709Z,1012.33
2018-07-25T07:26:06.708Z,1012.37
2018-07-25T07:27:06.690Z,1012.35
2018-07-25T07:28:06.681Z,1012.33
2018-07-25T07:29:06.674Z,1012.31
2018-07-25T07:30:06.670Z,1012.33
2018-07-25T07:31:06.661Z,1012.33
2018-07-25T07:32:06.643Z,1012.34
2018-07-25T07:33:06.638Z,1012.34
2018-07-25T07:34:06.635Z,1012.34
2018-07-25T07:35:06.652Z,1012.35
2018-07-25T07:36:06.614Z,1012.34
2018-07-25T07:37:06.598Z,1012.32
2018-07-25T07:38:06.590Z,1012.34
2018-07-25T07:39:06.586Z,1012.39
2018-07-25T07:40:06.574Z,1012.41
2018-07-25T07:41:06.571Z,1012.36
2018-07-25T07:42:06.558Z,1012.38
2018-07-25T07:43:06.553Z,1012.36
2018-07-25T07:44:06.555Z,1012.38
2018-07-25T07:45:06.532Z,1012.35
2018-07-25T07:46:06.524Z,1012.37
2018-07-25T07:47:06.513Z,1012.42
2018-07-25T07:48:06.505Z,1012.38
2018-07-25T07:49:06.497Z,1012.40
2018-07-25T07:50:06.490Z,1012.39
2018-07-25T07:51:06.489Z,1012.38
2018-07-25T07:52:06.477Z,1012.40
2018-07-25T07:53:06.466Z,1012.40
2018-07-25T07:54:06.488Z,1012.43
2018-07-25T07:55:06.453Z,1012.44
2018-07-25T07:56:06.443Z,1012.46
2018-07-25T07:57:06.432Z,1012.50
2018-07-25T07:58:06.460Z,1012.47
2018-07-25T07:59:06.416Z,1015.52
2018-07-25T08:00:06.408Z,1020.45
2018-07-25T08:01:06.407Z,1025.41
2018-07-25T08:02:06.394Z,1029.06
2018-07-25T08:03:09.210Z,1030.07
2018-07-25T08:04:06.379Z,1029.67
2018-07-25T08:05:06.453Z,1028.26
2018-07-25T08:06:06.366Z,1027.16
2018-07-25T08:07:06.363Z,1025.85
2018-07-25T08:08:06.357Z,1025.28
2018-07-25T08:09:06.348Z,1025.08
2018-07-25T08:11:06.356Z,1025.17
2018-07-25T08:12:06.334Z,1024.65
2018-07-25T08:13:06.345Z,1024.14
2018-07-25T08:14:06.339Z,1023.54
2018-07-25T08:15:06.316Z,1023.17
2018-07-25T08:16:06.315Z,1022.36
2018-07-25T08:17:06.325Z,1021.74
2018-07-25T08:18:06.303Z,1012.38
2018-07-25T08:19:06.355Z,1012.38
2018-07-25T08:20:06.301Z,1012.43
2018-07-25T08:21:06.320Z,1012.42
2018-07-25T08:22:06.287Z,1012.42
2018-07-25T08:23:06.283Z,1012.39
2018-07-25T08:24:06.280Z,1012.46
2018-07-25T08:25:06.279Z,1012.45
2018-07-25T08:26:06.272Z,1012.47
2018-07-25T08:27:06.270Z,1012.40
2018-07-25T08:28:06.267Z,1012.37
2018-07-25T08:29:06.260Z,1012.36
2018-07-25T08:30:06.257Z,1012.36
2018-07-25T08:31:06.257Z,1012.34
2018-07-25T08:32:06.249Z,1012.34
2018-07-25T08:33:06.244Z,1012.32
2018-07-25T08:34:06.239Z,1012.38
2018-07-25T08:35:06.233Z,1012.34
2018-07-25T08:36:06.232Z,1012.38
2018-07-25T08:37:06.228Z,1012.36
2018-07-25T08:38:06.223Z,1012.32
2018-07-25T08:39:06.220Z,1012.33
2018-07-25T08:40:06.214Z,1012.35
2018-07-25T08:41:06.213Z,1012.31
2018-07-25T08:42:06.214Z,1012.34
2018-07-25T08:43:06.200Z,1012.30
2018-07-25T08:44:06.198Z,1012.31
2018-07-25T08:45:06.204Z,1012.29
2018-07-25T08:46:06.186Z,1012.30
2018-07-25T08:47:06.182Z,1012.32
2018-07-25T08:48:06.177Z,1012.28
2018-07-25T08:49:06.171Z,1012.30
2018-07-25T08:50:06.167Z,1012.31
2018-07-25T08:51:06.173Z,1012.32
2018-07-25T08:52:06.157Z,1012.28
2018-07-25T08:53:06.152Z,1012.28
2018-07-25T08:54:06.150Z,1012.29
2018-07-25T08:55:06.144Z,1012.28
2018-07-25T08:56:06.137Z,1012.31
2018-07-25T08:57:06.133Z,1012.32
2018-07-25T08:58:06.153Z,1012.31
2018-07-25T08:59:06.134Z,1012.29
2018-07-25T09:00:06.119Z,1012.30
2018-07-25T09:01:06.114Z,1012.31
2018-07-25T09:02:06.107Z,1012.30
2018-07-25T09:03:06.104Z,1012.30
2018-07-25T09:04:06.105Z,1012.31
2018-07-25T09:05:06.092Z,1012.27
2018-07-25T09:06:06.088Z,1012.29
2018-07-25T09:07:06.084Z,1012.27
2018-07-25T09:08:06.077Z,1012.28
2018-07-25T09:09:06.090Z,1012.27
2018-07-25T09:10:06.099Z,1012.26
2018-07-25T09:11:06.061Z,1012.25
2018-07-25T09:12:06.061Z,1012.25
2018-07-25T09:13:06.137Z,1012.27
2018-07-25T09:14:06.047Z,1012.27
2018-07-25T09:15:06.050Z,1012.21
2018-07-25T09:16:06.040Z,1012.28
2018-07-25T09:17:06.031Z,1012.28
2018-07-25T09:18:06.028Z,1012.24
2018-07-25T09:19:06.070Z,1012.24
2018-07-25T09:20:06.016Z,1012.26
2018-07-25T09:21:06.010Z,1012.27
2018-07-25T09:22:06.007Z,1012.27
2018-07-25T09:23:05.999Z,1012.27
2018-07-25T09:24:05.994Z,1012.26
2018-07-25T09:25:06.049Z,1012.28
2018-07-25T09:26:05.985Z,1012.27
2018-07-25T09:27:05.978Z,1012.30
2018-07-25T09:28:05.971Z,1012.31
2018-07-25T09:29:05.967Z,1012.31
2018-07-25T09:30:05.961Z,1012.35
2018-07-25T09:31:05.957Z,1012.33
2018-07-25T09:32:05.953Z,1012.35
2018-07-25T09:33:05.953Z,1012.39
2018-07-25T09:34:05.975Z,1012.39
2018-07-25T09:35:05.935Z,1012.35
2018-07-25T09:36:05.931Z,1012.32
2018-07-25T09:37:05.927Z,1012.37
2018-07-25T09:38:05.919Z,1012.36
2018-07-25T09:39:05.919Z,1012.35
2018-07-25T09:40:05.915Z,1012.40
2018-07-25T09:41:05.965Z,1012.40
2018-07-25T09:42:05.900Z,1012.40
2018-07-25T09:43:05.892Z,1012.37
2018-07-25T09:44:05.890Z,1012.29
2018-07-25T09:45:05.882Z,1012.27
2018-07-25T09:46:05.878Z,1012.29
2018-07-25T09:47:05.915Z,1012.26
2018-07-25T09:48:05.867Z,1012.28
2018-07-25T09:49:05.862Z,1012.26
2018-07-25T09:50:05.860Z,1012.26
2018-07-25T09:51:05.849Z,1012.23
2018-07-25T09:52:05.847Z,1012.21
2018-07-25T09:53:05.856Z,1012.22
2018-07-25T09:54:05.862Z,1012.22
2018-07-25T09:55:05.834Z,1012.22
2018-07-25T09:56:05.827Z,1012.20
2018-07-25T09:57:05.827Z,1012.10
2018-07-25T09:58:05.817Z,1012.11
2018-07-25T09:59:05.844Z,1012.06
2018-07-25T10:00:05.805Z,1012.12
2018-07-25T10:01:05.929Z,1012.20
2018-07-25T10:02:05.811Z,1012.20
2018-07-25T10:03:05.791Z,1012.16
2018-07-25T10:04:05.808Z,1012.14
2018-07-25T10:05:05.780Z,1012.15
2018-07-25T10:06:05.784Z,1012.14
2018-07-25T10:07:05.796Z,1012.18
2018-07-25T10:08:05.764Z,1012.20
2018-07-25T10:09:05.758Z,1012.23
2018-07-25T10:10:05.752Z,1012.23
2018-07-25T10:11:05.745Z,1012.22
2018-07-25T10:12:05.742Z,1012.11
2018-07-25T10:13:05.737Z,1012.16
2018-07-25T10:14:05.740Z,1012.22
2018-07-25T10:15:05.800Z,1012.20
2018-07-25T10:16:05.724Z,1012.14
2018-07-25T10:17:05.716Z,1012.16
2018-07-25T10:18:05.712Z,1012.13
2018-07-25T10:19:05.734Z,1012.13
2018-07-25T10:20:05.711Z,1012.13
2018-07-25T10:21:05.696Z,1012.11
2018-07-25T10:22:05.713Z,1012.12
2018-07-25T10:23:05.692Z,1012.13
2018-07-25T10:24:05.681Z,1012.10
2018-07-25T10:25:05.715Z,1012.13
2018-07-25T10:26:05.673Z,1012.11
2018-07-25T10:27:05.665Z,1012.10
2018-07-25T10:28:05.673Z,1012.11
2018-07-25T10:29:05.678Z,1012.10
2018-07-25T10:30:05.652Z,1012.09
2018-07-25T10:31:05.648Z,1012.06
2018-07-25T10:32:05.642Z,1012.08
2018-07-25T10:33:05.674Z,1012.09
2018-07-25T10:34:05.633Z,1012.05
2018-07-25T10:35:05.624Z,1012.06
2018-07-25T10:36:05.621Z,1012.02
2018-07-25T10:37:05.615Z,1011.99
2018-07-25T10:38:05.618Z,1012.01
2018-07-25T10:39:05.642Z,1012.03
2018-07-25T10:40:05.605Z,1012.00
2018-07-25T10:41:05.597Z,1012.04
2018-07-25T10:42:05.589Z,1011.90
2018-07-25T10:43:05.584Z,1011.87
2018-07-25T10:44:05.580Z,1011.88
2018-07-25T10:45:05.580Z,1011.98
2018-07-25T10:46:05.570Z,1011.86
2018-07-25T10:47:05.566Z,1011.88
2018-07-25T10:48:05.560Z,1011.85
2018-07-25T10:49:05.559Z,1011.87
2018-07-25T10:50:05.552Z,1011.88
2018-07-25T10:51:05.545Z,1011.92
2018-07-25T10:52:05.545Z,1012.02
2018-07-25T10:53:05.540Z,1012.01
2018-07-25T10:54:05.529Z,1011.99
2018-07-25T10:55:05.527Z,1011.97
2018-07-25T10:56:05.520Z,1011.97
2018-07-25T10:57:05.515Z,1011.98
2018-07-25T10:58:05.512Z,1011.96
2018-07-25T10:59:05.513Z,1011.99
2018-07-25T11:00:05.506Z,1011.96
2018-07-25T11:01:05.494Z,1011.96
2018-07-25T11:02:05.507Z,1011.93
2018-07-25T11:03:05.491Z,1011.98
2018-07-25T11:04:05.481Z,1011.98
2018-07-25T11:05:05.479Z,1011.91
2018-07-25T11:06:05.475Z,1011.95
2018-07-25T11:07:05.466Z,1011.95
2018-07-25T11:08:05.461Z,1011.98
2018-07-25T11:09:05.458Z,1011.95
2018-07-25T11:10:05.458Z,1011.98
2018-07-25T11:11:05.447Z,1011.92
2018-07-25T11:12:05.443Z,1011.96
2018-07-25T11:13:05.442Z,1011.92
2018-07-25T11:14:05.437Z,1011.95
2018-07-25T11:15:05.428Z,1011.97
2018-07-25T11:16:05.424Z,1011.97
2018-07-25T11:17:05.420Z,1011.97
2018-07-25T11:18:05.414Z,1012.00
2018-07-25T11:19:05.410Z,1011.97
2018-07-25T11:20:05.405Z,1011.92
2018-07-25T11:21:05.399Z,1011.95
2018-07-25T11:22:05.407Z,1011.95
2018-07-25T11:23:05.501Z,1011.96
2018-07-25T11:24:05.387Z,1011.92
2018-07-25T11:25:05.381Z,1011.94
2018-07-25T11:26:05.377Z,1011.93
2018-07-25T11:27:05.372Z,1011.93
2018-07-25T11:28:05.370Z,1011.94
2018-07-25T11:29:05.363Z,1011.88
2018-07-25T11:30:05.359Z,1011.89
2018-07-25T11:31:05.355Z,1011.91
2018-07-25T11:32:05.351Z,1011.91
2018-07-25T11:33:05.345Z,1011.92
2018-07-25T11:34:05.342Z,1011.96
2018-07-25T11:35:05.338Z,1011.91
2018-07-25T11:36:05.332Z,1011.77
2018-07-25T11:37:05.327Z,1011.79
2018-07-25T11:38:05.378Z,1011.79
2018-07-25T11:39:05.319Z,1011.77
2018-07-25T11:40:05.316Z,1011.84
2018-07-25T11:41:05.314Z,1011.79
2018-07-25T11:42:05.306Z,1011.82
2018-07-25T11:43:05.301Z,1011.93
2018-07-25T11:44:05.298Z,1011.90
2018-07-25T11:45:05.294Z,1011.88
2018-07-25T11:46:05.288Z,1011.90
2018-07-25T11:47:05.285Z,1011.88
2018-07-25T11:48:05.279Z,1011.89
2018-07-25T11:49:05.275Z,1011.84
2018-07-25T11:50:05.337Z,1011.82
2018-07-25T11:51:05.266Z,1011.84
2018-07-25T11:52:05.261Z,1011.85
2018-07-25T11:53:05.257Z,1011.82
2018-07-25T11:54:05.260Z,1011.82
2018-07-25T11:55:05.247Z,1011.78
2018-07-25T11:56:05.248Z,1011.77
2018-07-25T11:57:05.238Z,1011.77
2018-07-25T11:58:05.236Z,1011.79
2018-07-25T11:59:05.232Z,1011.76
2018-07-25T12:00:05.228Z,1011.80
2018-07-25T12:01:05.259Z,1011.76
2018-07-25T12:02:05.225Z,1011.82
2018-07-25T12:03:05.224Z,1011.64
2018-07-25T12:04:05.211Z,1011.68
2018-07-25T12:05:05.206Z,1011.59
2018-07-25T12:06:05.203Z,1011.61
2018-07-25T12:07:05.201Z,1011.57
2018-07-25T12:08:05.195Z,1011.57
2018-07-25T12:09:05.193Z,1011.51